createdAt,value
2022-08-26T00:01:56.576Z,3.70
2022-08-26T00:04:25.915Z,4.03
2022-08-26T00:06:55.626Z,3.33
2022-08-26T00:09:25.399Z,3.20
2022-08-26T00:11:54.653Z,3.80
2022-08-26T00:14:27.183Z,3.10
2022-08-26T00:16:57.995Z,2.95
2022-08-26T00:19:26.187Z,3.40
2022-08-26T00:21:54.546Z,3.92
2022-08-26T00:24:23.988Z,3.60
2022-08-26T00:26:51.892Z,3.42
2022-08-26T00:29:21.312Z,3.30
2022-08-26T00:31:49.661Z,3.05
2022-08-26T00:34:19.322Z,3.83
2022-08-26T00:36:51.794Z,3.65
2022-08-26T00:39:20.726Z,3.45
2022-08-26T00:41:50.182Z,3.45
2022-08-26T00:44:19.667Z,3.90
2022-08-26T00:47:01.424Z,3.70
2022-08-26T00:49:47.588Z,3.92
2022-08-26T00:52:20.023Z,3.55
2022-08-26T00:55:02.695Z,3.20
2022-08-26T00:57:32.328Z,3.33
2022-08-26T01:00:02.150Z,3.38
2022-08-26T01:02:31.370Z,3.15
2022-08-26T01:05:01.596Z,3.22
2022-08-26T01:07:32.622Z,3.40
2022-08-26T01:10:09.370Z,3.67
2022-08-26T01:12:43.031Z,2.83
2022-08-26T01:15:15.559Z,3.30
2022-08-26T01:17:43.913Z,2.97
2022-08-26T01:20:19.453Z,3.15
2022-08-26T01:23:03.264Z,3.38
2022-08-26T01:28:06.636Z,3.28
2022-08-26T01:30:36.586Z,3.42
2022-08-26T01:33:11.151Z,3.80
2022-08-26T01:35:40.320Z,3.47
2022-08-26T01:38:11.594Z,3.63
2022-08-26T01:40:43.143Z,3.25
2022-08-26T01:43:17.651Z,3.28
2022-08-26T01:45:48.389Z,3.22
2022-08-26T01:48:21.185Z,3.22
2022-08-26T01:50:49.656Z,2.90
2022-08-26T01:53:19.988Z,2.92
2022-08-26T01:55:53.332Z,3.92
2022-08-26T01:58:43.576Z,3.25
2022-08-26T02:01:12.210Z,3.25
2022-08-26T02:03:51.569Z,2.90
2022-08-26T02:06:19.984Z,2.85
2022-08-26T02:08:50.901Z,2.75
2022-08-26T02:11:19.172Z,2.53
2022-08-26T02:13:55.745Z,3.13
2022-08-26T02:16:26.244Z,3.40
2022-08-26T02:18:55.667Z,2.95
2022-08-26T02:21:24.950Z,3.67
2022-08-26T02:23:56.241Z,3.38
2022-08-26T02:26:28.196Z,3.60
2022-08-26T02:29:16.486Z,3.72
2022-08-26T02:31:44.503Z,3.83
2022-08-26T02:34:15.793Z,3.70
2022-08-26T02:36:43.829Z,4.13
2022-08-26T02:39:13.633Z,3.60
2022-08-26T02:41:45.316Z,4.18
2022-08-26T02:44:13.353Z,4.28
2022-08-26T02:46:41.828Z,4.15
2022-08-26T02:49:17.103Z,3.63
2022-08-26T02:51:45.714Z,4.30
2022-08-26T02:54:14.062Z,4.38
2022-08-26T02:56:42.388Z,3.42
2022-08-26T02:59:12.750Z,4.03
2022-08-26T03:01:40.953Z,4.05
2022-08-26T03:04:12.276Z,3.85
2022-08-26T03:06:41.426Z,4.35
2022-08-26T03:09:10.237Z,3.50
2022-08-26T03:11:47.314Z,4.05
2022-08-26T03:14:15.351Z,3.83
2022-08-26T03:16:43.757Z,4.35
2022-08-26T03:19:18.240Z,4.30
2022-08-26T03:21:47.600Z,4.10
2022-08-26T03:24:15.768Z,3.80
2022-08-26T03:26:52.559Z,3.95
2022-08-26T03:29:40.236Z,3.97
2022-08-26T03:32:08.685Z,3.88
2022-08-26T03:34:37.344Z,3.83
2022-08-26T03:37:06.610Z,3.70
2022-08-26T03:39:34.992Z,3.72
2022-08-26T03:42:02.925Z,4.35
2022-08-26T03:44:31.672Z,3.80
2022-08-26T03:47:00.641Z,3.63
2022-08-26T03:49:31.473Z,4.15
2022-08-26T03:52:00.327Z,3.63
2022-08-26T03:54:28.146Z,4.50
2022-08-26T03:56:56.027Z,4.10
2022-08-26T03:59:25.089Z,4.47
2022-08-26T04:01:52.978Z,4.22
2022-08-26T04:04:22.758Z,4.35
2022-08-26T04:06:58.523Z,4.18
2022-08-26T04:09:27.781Z,4.43
2022-08-26T04:11:56.120Z,4.43
2022-08-26T04:14:27.081Z,4.18
2022-08-26T04:16:56.467Z,4.50
2022-08-26T04:19:25.854Z,4.07
2022-08-26T04:21:54.246Z,4.00
2022-08-26T04:24:24.708Z,4.10
2022-08-26T04:26:52.937Z,3.92
2022-08-26T04:29:24.408Z,3.42
2022-08-26T04:31:55.867Z,3.70
2022-08-26T04:34:28.324Z,3.60
2022-08-26T04:36:58.162Z,4.00
2022-08-26T04:39:27.574Z,3.92
2022-08-26T04:41:57.833Z,3.85
2022-08-26T04:44:28.749Z,3.30
2022-08-26T04:46:57.531Z,3.88
2022-08-26T04:49:27.596Z,3.25
2022-08-26T04:51:55.869Z,3.40
2022-08-26T04:54:25.122Z,3.20
2022-08-26T04:56:53.220Z,3.50
2022-08-26T04:59:21.335Z,3.30
2022-08-26T05:01:52.224Z,3.78
2022-08-26T05:04:21.297Z,3.85
2022-08-26T05:06:50.799Z,3.67
2022-08-26T05:09:20.265Z,3.60
2022-08-26T05:11:52.151Z,3.40
2022-08-26T05:14:23.379Z,3.33
2022-08-26T05:16:52.430Z,3.60
2022-08-26T05:19:21.067Z,3.67
2022-08-26T05:21:49.447Z,3.00
2022-08-26T05:24:18.266Z,3.35
2022-08-26T05:26:46.895Z,3.00
2022-08-26T05:29:14.695Z,3.67
2022-08-26T05:31:43.230Z,3.28
2022-08-26T05:34:11.113Z,3.83
2022-08-26T05:36:40.273Z,3.50
2022-08-26T05:39:10.648Z,3.47
2022-08-26T05:41:41.342Z,3.40
2022-08-26T05:44:14.013Z,3.72
2022-08-26T05:46:44.875Z,3.75
2022-08-26T05:49:14.712Z,3.35
2022-08-26T05:51:47.530Z,3.60
2022-08-26T05:54:21.341Z,3.53
2022-08-26T05:56:52.195Z,3.58
2022-08-26T05:59:23.898Z,3.42
2022-08-26T06:01:54.987Z,3.38
2022-08-26T06:04:27.006Z,3.58
2022-08-26T06:06:55.920Z,3.38
2022-08-26T06:09:24.319Z,3.45
2022-08-26T06:11:52.138Z,3.78
2022-08-26T06:14:21.643Z,3.85
2022-08-26T06:16:49.943Z,3.92
2022-08-26T06:19:18.076Z,3.40
2022-08-26T06:21:47.988Z,3.03
2022-08-26T06:24:41.336Z,3.38
2022-08-26T06:27:13.891Z,3.38
2022-08-26T06:29:43.373Z,3.17
2022-08-26T06:32:12.110Z,3.17
2022-08-26T06:34:40.236Z,3.20
2022-08-26T06:37:08.964Z,3.35
2022-08-26T06:39:41.038Z,3.35
2022-08-26T06:42:10.869Z,2.90
2022-08-26T06:44:39.041Z,3.70
2022-08-26T06:47:09.129Z,2.55
2022-08-26T06:49:37.444Z,3.35
2022-08-26T06:52:05.270Z,3.50
2022-08-26T06:54:33.112Z,3.13
2022-08-26T06:57:01.285Z,3.50
2022-08-26T06:59:31.303Z,3.03
2022-08-26T07:02:09.859Z,3.55
2022-08-26T07:04:42.085Z,3.40
2022-08-26T07:07:14.430Z,2.88
2022-08-26T07:09:42.281Z,3.38
2022-08-26T07:12:10.647Z,2.95
2022-08-26T07:14:39.308Z,2.90
2022-08-26T07:17:09.252Z,3.10
2022-08-26T07:19:40.042Z,3.53
2022-08-26T07:22:08.626Z,3.03
2022-08-26T07:24:43.108Z,3.03
2022-08-26T07:27:14.468Z,3.25
2022-08-26T07:29:43.742Z,3.60
2022-08-26T07:32:14.895Z,3.33
2022-08-26T07:34:43.624Z,3.38
2022-08-26T07:37:11.591Z,3.45
2022-08-26T07:39:41.779Z,3.40
2022-08-26T07:42:14.164Z,3.40
2022-08-26T07:44:43.268Z,3.60
2022-08-26T07:47:25.703Z,3.90
2022-08-26T07:49:56.288Z,3.33
2022-08-26T07:52:27.536Z,3.47
2022-08-26T07:54:58.380Z,3.55
2022-08-26T07:57:27.904Z,3.58
2022-08-26T07:59:56.665Z,3.70
2022-08-26T08:02:26.080Z,3.42
2022-08-26T08:04:55.391Z,3.25
2022-08-26T08:07:25.813Z,3.58
2022-08-26T08:10:11.316Z,3.13
2022-08-26T08:12:41.118Z,3.10
2022-08-26T08:15:12.314Z,3.03
2022-08-26T08:17:43.516Z,3.03
2022-08-26T08:20:14.121Z,3.15
2022-08-26T08:22:43.094Z,3.78
2022-08-26T08:25:12.213Z,3.40
2022-08-26T08:27:45.213Z,3.80
2022-08-26T08:30:14.915Z,3.50
2022-08-26T08:32:48.942Z,3.17
2022-08-26T08:35:18.823Z,3.58
2022-08-26T08:37:46.939Z,3.50
2022-08-26T08:40:18.812Z,3.13
2022-08-26T08:43:01.669Z,3.95
2022-08-26T08:45:37.254Z,4.15
2022-08-26T08:48:27.328Z,3.40
2022-08-26T08:51:04.424Z,3.50
2022-08-26T08:53:33.025Z,3.97
2022-08-26T08:56:23.710Z,3.50
2022-08-26T08:58:56.723Z,4.30
2022-08-26T09:01:43.236Z,3.67
2022-08-26T09:04:38.977Z,3.50
2022-08-26T09:07:12.102Z,3.28
2022-08-26T09:09:46.285Z,3.47
2022-08-26T09:12:20.759Z,3.58
2022-08-26T09:15:17.307Z,4.03
2022-08-26T09:18:24.930Z,3.53
2022-08-26T09:21:00.440Z,3.58
2022-08-26T09:23:30.346Z,3.90
2022-08-26T09:26:29.255Z,3.80
2022-08-26T09:28:59.290Z,3.80
2022-08-26T09:31:36.526Z,4.10
2022-08-26T09:34:12.008Z,3.95
2022-08-26T09:36:56.028Z,3.75
2022-08-26T09:39:33.602Z,3.65
2022-08-26T09:42:05.634Z,4.38
2022-08-26T09:44:35.691Z,3.50
2022-08-26T09:47:07.502Z,4.05
2022-08-26T09:49:41.108Z,3.67
2022-08-26T09:54:58.259Z,3.97
2022-08-26T09:57:29.766Z,3.67
2022-08-26T09:59:57.612Z,3.70
2022-08-26T10:02:34.423Z,4.00
2022-08-26T10:05:09.523Z,3.80
2022-08-26T10:07:38.903Z,3.70
2022-08-26T10:10:22.823Z,3.67
2022-08-26T10:12:59.169Z,3.80
2022-08-26T10:15:28.368Z,3.83
2022-08-26T10:18:06.626Z,3.92
2022-08-26T10:20:42.154Z,3.90
2022-08-26T10:23:18.147Z,3.65
2022-08-26T10:25:48.110Z,4.20
2022-08-26T10:28:44.403Z,4.05
2022-08-26T10:31:28.147Z,4.30
2022-08-26T10:34:00.468Z,4.00
2022-08-26T10:40:07.681Z,3.90
2022-08-26T10:42:35.569Z,3.78
2022-08-26T10:45:15.067Z,3.95
2022-08-26T10:47:55.982Z,4.60
2022-08-26T10:50:30.948Z,4.22
2022-08-26T10:53:07.655Z,4.45
2022-08-26T10:55:43.267Z,4.38
2022-08-26T10:58:47.053Z,4.10
2022-08-26T11:01:43.323Z,4.57
2022-08-26T11:04:29.189Z,4.35
2022-08-26T11:07:35.189Z,4.30
2022-08-26T11:10:17.047Z,4.55
2022-08-26T11:12:49.223Z,4.38
2022-08-26T11:15:24.398Z,4.35
2022-08-26T11:17:52.569Z,4.13
2022-08-26T11:20:23.893Z,4.35
2022-08-26T11:22:54.849Z,4.20
2022-08-26T11:25:29.628Z,4.38
2022-08-26T11:28:00.559Z,4.35
2022-08-26T11:30:42.964Z,4.43
2022-08-26T11:33:51.046Z,5.20
2022-08-26T11:36:46.788Z,4.10
2022-08-26T11:39:29.543Z,3.78
2022-08-26T11:42:16.434Z,5.00
2022-08-26T11:44:49.868Z,4.10
2022-08-26T11:47:31.553Z,3.47
2022-08-26T11:50:10.119Z,3.75
2022-08-26T11:52:38.837Z,3.85
2022-08-26T11:55:11.825Z,4.18
2022-08-26T11:57:53.302Z,4.15
2022-08-26T12:00:24.507Z,4.43
2022-08-26T12:02:53.461Z,4.70
2022-08-26T12:05:29.592Z,4.28
2022-08-26T12:08:12.324Z,4.47
2022-08-26T12:10:40.481Z,4.55
2022-08-26T12:13:09.302Z,4.72
2022-08-26T12:15:37.110Z,3.90
2022-08-26T12:18:29.649Z,4.05
2022-08-26T12:21:12.404Z,4.43
2022-08-26T12:23:49.918Z,4.20
2022-08-26T12:26:25.776Z,4.07
2022-08-26T12:29:26.676Z,4.30
2022-08-26T12:32:14.474Z,3.80
2022-08-26T12:34:55.923Z,3.75
2022-08-26T12:37:44.557Z,3.88
2022-08-26T12:40:41.920Z,3.75
2022-08-26T12:43:16.459Z,3.70
2022-08-26T12:46:07.330Z,4.45
2022-08-26T12:48:55.484Z,3.40
2022-08-26T12:51:28.577Z,4.10
2022-08-26T12:54:07.623Z,3.88
2022-08-26T12:56:43.771Z,4.30
2022-08-26T12:59:27.411Z,3.88
2022-08-26T13:01:58.359Z,3.80
2022-08-26T13:04:47.415Z,4.13
2022-08-26T13:07:28.913Z,4.10
2022-08-26T13:10:07.644Z,3.92
2022-08-26T13:12:44.484Z,4.07
2022-08-26T13:15:28.019Z,4.10
2022-08-26T13:18:03.967Z,4.10
2022-08-26T13:20:35.087Z,4.60
2022-08-26T13:23:18.385Z,3.95
2022-08-26T13:26:18.984Z,3.95
2022-08-26T13:29:01.703Z,3.92
2022-08-26T13:31:36.357Z,3.65
2022-08-26T13:34:11.143Z,3.88
2022-08-26T13:36:48.350Z,3.78
2022-08-26T13:39:20.693Z,3.63
2022-08-26T13:41:52.610Z,3.50
2022-08-26T13:44:32.128Z,3.55
2022-08-26T13:47:02.798Z,4.00
2022-08-26T13:49:40.365Z,3.20
2022-08-26T13:52:25.526Z,3.47
2022-08-26T13:55:03.233Z,3.60
2022-08-26T13:57:35.794Z,3.78
2022-08-26T14:00:11.542Z,3.72
2022-08-26T14:02:42.559Z,3.45
2022-08-26T14:05:14.300Z,3.70
2022-08-26T14:07:47.997Z,3.40
2022-08-26T14:10:19.681Z,3.83
2022-08-26T14:12:55.375Z,3.30
2022-08-26T14:15:33.318Z,3.72
2022-08-26T14:18:07.758Z,3.78
2022-08-26T14:20:50.813Z,4.05
2022-08-26T14:23:22.093Z,4.47
2022-08-26T14:25:54.305Z,3.58
2022-08-26T14:31:03.496Z,4.88
2022-08-26T14:33:39.478Z,3.63
2022-08-26T14:36:28.706Z,4.10
2022-08-26T14:39:08.398Z,4.82
2022-08-26T14:41:54.305Z,4.35
2022-08-26T14:44:40.258Z,4.82
2022-08-26T14:47:10.864Z,3.75
2022-08-26T14:49:49.935Z,3.65
2022-08-26T14:52:19.870Z,3.92
2022-08-26T14:54:49.065Z,3.80
2022-08-26T14:57:27.792Z,4.53
2022-08-26T14:59:58.885Z,3.65
2022-08-26T15:02:33.266Z,4.75
2022-08-26T15:05:09.224Z,5.45
2022-08-26T15:07:47.736Z,5.28
2022-08-26T15:10:18.928Z,4.85
2022-08-26T15:12:51.102Z,3.40
2022-08-26T15:15:26.010Z,4.53
2022-08-26T15:17:55.380Z,3.92
2022-08-26T15:20:26.206Z,3.67
2022-08-26T15:22:54.054Z,4.10
2022-08-26T15:25:22.517Z,4.13
2022-08-26T15:27:50.514Z,4.40
2022-08-26T15:30:18.568Z,4.95
2022-08-26T15:32:47.634Z,4.90
2022-08-26T15:35:15.549Z,4.38
2022-08-26T15:37:43.401Z,4.25
2022-08-26T15:40:11.694Z,4.20
2022-08-26T15:42:39.626Z,3.75
2022-08-26T15:45:10.849Z,4.07
2022-08-26T15:48:01.299Z,3.90
2022-08-26T15:50:39.495Z,4.13
2022-08-26T15:53:13.174Z,6.68
2022-08-26T15:55:41.139Z,4.07
2022-08-26T15:58:12.328Z,4.15
2022-08-26T16:00:42.213Z,4.00
2022-08-26T16:03:10.211Z,4.05
2022-08-26T16:05:49.430Z,3.38
2022-08-26T16:08:17.833Z,3.60
2022-08-26T16:10:50.287Z,3.70
2022-08-26T16:13:20.479Z,4.25
2022-08-26T16:15:49.120Z,4.38
2022-08-26T16:18:17.343Z,4.07
2022-08-26T16:21:01.560Z,4.07
2022-08-26T16:23:38.970Z,3.40
2022-08-26T16:26:11.437Z,3.58
2022-08-26T16:28:39.557Z,4.30
2022-08-26T16:31:09.671Z,4.57
2022-08-26T16:33:38.063Z,3.90
2022-08-26T16:36:07.659Z,3.38
2022-08-26T16:38:37.762Z,7.30
2022-08-26T16:41:07.162Z,4.82
2022-08-26T16:43:35.623Z,4.50
2022-08-26T16:46:06.884Z,6.63
2022-08-26T16:48:35.472Z,4.22
2022-08-26T16:51:03.572Z,3.92
2022-08-26T16:53:31.674Z,4.40
2022-08-26T16:56:00.670Z,4.93
2022-08-26T16:58:29.016Z,3.88
2022-08-26T17:00:57.687Z,4.70
2022-08-26T17:03:26.368Z,3.88
2022-08-26T17:05:54.164Z,3.90
2022-08-26T17:08:28.383Z,3.95
2022-08-26T17:11:00.806Z,4.30
2022-08-26T17:13:35.762Z,3.88
2022-08-26T17:16:07.674Z,4.10
2022-08-26T17:18:37.163Z,4.00
2022-08-26T17:21:09.569Z,4.18
2022-08-26T17:23:38.841Z,3.85
2022-08-26T17:26:07.082Z,6.10
2022-08-26T17:28:35.008Z,4.80
2022-08-26T17:31:06.190Z,4.53
2022-08-26T17:33:34.922Z,4.63
2022-08-26T17:36:03.120Z,4.80
2022-08-26T17:38:30.987Z,3.92
2022-08-26T17:40:59.121Z,4.60
2022-08-26T17:43:27.023Z,4.10
2022-08-26T17:46:04.701Z,4.50
2022-08-26T17:48:39.927Z,3.92
2022-08-26T17:51:17.049Z,4.13
2022-08-26T17:53:46.027Z,4.55
2022-08-26T17:56:17.094Z,4.43
2022-08-26T17:58:51.377Z,4.68
2022-08-26T18:01:26.122Z,4.40
2022-08-26T18:04:00.078Z,4.32
2022-08-26T18:06:30.536Z,4.07
2022-08-26T18:08:59.502Z,3.80
2022-08-26T18:11:28.494Z,4.50
2022-08-26T18:13:56.310Z,4.28
2022-08-26T18:16:24.618Z,4.78
2022-08-26T18:18:53.576Z,6.13
2022-08-26T18:21:27.937Z,5.63
2022-08-26T18:23:56.480Z,6.55
2022-08-26T18:26:30.463Z,7.30
2022-08-26T18:28:59.151Z,5.47
2022-08-26T18:31:27.558Z,4.55
2022-08-26T18:33:55.500Z,5.68
2022-08-26T18:36:27.306Z,4.20
2022-08-26T18:38:55.787Z,4.05
2022-08-26T18:41:26.062Z,3.92
2022-08-26T18:43:54.259Z,3.88
2022-08-26T18:46:25.515Z,4.93
2022-08-26T18:48:59.276Z,5.35
2022-08-26T18:51:45.672Z,4.82
2022-08-26T18:54:15.606Z,5.25
2022-08-26T18:56:43.979Z,5.00
2022-08-26T18:59:14.110Z,4.28
2022-08-26T19:01:42.900Z,4.80
2022-08-26T19:04:14.760Z,4.68
2022-08-26T19:06:46.879Z,4.45
2022-08-26T19:09:17.967Z,4.63
2022-08-26T19:11:47.038Z,5.43
2022-08-26T19:14:18.958Z,4.88
2022-08-26T19:17:19.091Z,5.25
2022-08-26T19:19:50.798Z,5.25
2022-08-26T19:22:27.742Z,4.72
2022-08-26T19:24:55.660Z,5.50
2022-08-26T19:27:28.818Z,4.82
2022-08-26T19:29:57.984Z,6.05
2022-08-26T19:32:26.092Z,5.00
2022-08-26T19:34:54.080Z,5.53
2022-08-26T19:37:22.153Z,5.10
2022-08-26T19:39:51.228Z,4.15
2022-08-26T19:42:19.697Z,4.47
2022-08-26T19:45:05.880Z,4.85
2022-08-26T19:47:37.114Z,4.90
2022-08-26T19:50:08.116Z,5.15
2022-08-26T19:52:38.640Z,5.18
2022-08-26T19:55:09.443Z,4.78
2022-08-26T19:57:40.074Z,4.90
2022-08-26T20:00:15.816Z,4.50
2022-08-26T20:02:44.564Z,4.43
2022-08-26T20:05:13.965Z,4.65
2022-08-26T20:07:42.518Z,4.25
2022-08-26T20:10:13.691Z,5.00
2022-08-26T20:12:42.617Z,5.97
2022-08-26T20:15:13.250Z,4.50
2022-08-26T20:17:41.177Z,5.05
2022-08-26T20:20:33.219Z,4.70
2022-08-26T20:23:04.496Z,5.32
2022-08-26T20:25:33.938Z,4.75
2022-08-26T20:28:02.129Z,5.53
2022-08-26T20:30:30.410Z,5.35
2022-08-26T20:32:58.702Z,4.63
2022-08-26T20:35:26.781Z,4.97
2022-08-26T20:37:54.738Z,4.45
2022-08-26T20:40:23.833Z,5.03
2022-08-26T20:42:51.767Z,5.30
2022-08-26T20:45:19.912Z,5.32
2022-08-26T20:47:47.871Z,4.78
2022-08-26T20:50:15.881Z,5.10
2022-08-26T20:52:43.837Z,4.88
2022-08-26T20:55:14.663Z,4.93
2022-08-26T20:57:44.477Z,4.75
2022-08-26T21:00:16.051Z,5.32
2022-08-26T21:02:46.541Z,5.60
2022-08-26T21:05:17.219Z,5.05
2022-08-26T21:07:45.979Z,5.20
2022-08-26T21:10:15.706Z,5.40
2022-08-26T21:12:45.168Z,4.63
2022-08-26T21:15:12.939Z,5.63
2022-08-26T21:17:41.685Z,4.78
2022-08-26T21:20:10.326Z,5.15
2022-08-26T21:22:38.536Z,5.20
2022-08-26T21:25:09.060Z,5.00
2022-08-26T21:27:40.485Z,5.13
2022-08-26T21:30:09.372Z,4.43
2022-08-26T21:32:37.343Z,4.97
2022-08-26T21:35:05.584Z,4.25
2022-08-26T21:37:33.780Z,4.88
2022-08-26T21:40:02.231Z,5.22
2022-08-26T21:42:34.243Z,5.13
2022-08-26T21:45:03.787Z,4.93
2022-08-26T21:47:32.775Z,4.53
2022-08-26T21:50:03.781Z,5.00
2022-08-26T21:52:35.427Z,4.75
2022-08-26T21:55:08.794Z,5.00
2022-08-26T22:00:09.825Z,4.68
2022-08-26T22:02:38.545Z,5.15
2022-08-26T22:05:07.290Z,5.00
2022-08-26T22:07:35.294Z,4.93
2022-08-26T22:10:04.996Z,4.75
2022-08-26T22:12:33.203Z,5.15
2022-08-26T22:15:02.417Z,4.60
2022-08-26T22:17:31.052Z,4.90
2022-08-26T22:19:58.858Z,4.43
2022-08-26T22:22:28.730Z,5.00
2022-08-26T22:24:56.573Z,4.65
2022-08-26T22:27:24.446Z,4.57
2022-08-26T22:29:52.837Z,5.05
2022-08-26T22:32:20.631Z,4.65
2022-08-26T22:34:48.689Z,4.35
2022-08-26T22:37:16.512Z,4.60
2022-08-26T22:39:44.777Z,4.82
2022-08-26T22:42:12.832Z,4.65
2022-08-26T22:44:41.328Z,4.95
2022-08-26T22:47:17.335Z,4.97
2022-08-26T22:50:06.795Z,4.55
2022-08-26T22:52:36.683Z,4.45
2022-08-26T22:55:05.173Z,5.10
2022-08-26T22:57:33.249Z,6.93
2022-08-26T23:00:01.008Z,7.35
2022-08-26T23:02:28.982Z,8.23
2022-08-26T23:04:56.905Z,6.68
2022-08-26T23:07:24.667Z,6.82
2022-08-26T23:09:52.392Z,6.32
2022-08-26T23:12:20.247Z,6.10
2022-08-26T23:14:49.044Z,6.13
2022-08-26T23:17:16.865Z,5.75
2022-08-26T23:19:44.726Z,5.93
2022-08-26T23:22:12.599Z,5.53
2022-08-26T23:24:40.667Z,5.72
2022-08-26T23:27:08.517Z,6.10
2022-08-26T23:29:36.844Z,5.30
2022-08-26T23:32:05.012Z,5.80
2022-08-26T23:34:51.446Z,5.35
2022-08-26T23:37:19.770Z,5.40
2022-08-26T23:39:48.972Z,4.97
2022-08-26T23:42:16.798Z,5.22
2022-08-26T23:44:44.687Z,5.70
2022-08-26T23:47:13.587Z,5.05
2022-08-26T23:49:41.983Z,5.53
2022-08-26T23:52:28.984Z,4.82
2022-08-26T23:54:56.922Z,5.20
2022-08-26T23:57:25.713Z,5.13
2022-08-26T23:59:53.680Z,5.28
